sensor_id;sensor_type;location;lat;lon;timestamp;P1;durP1;ratioP1;P2;durP2;ratioP2
22205;SDS011;11272;50.104;8.754;2023-04-24T00:02:07;3.80;;;0.90;;
22205;SDS011;11272;50.104;8.754;2023-04-24T00:04:36;4.30;;;1.30;;
22205;SDS011;11272;50.104;8.754;2023-04-24T00:07:05;0.80;;;0.70;;
22205;SDS011;11272;50.104;8.754;2023-04-24T00:09:32;4.10;;;0.97;;
22205;SDS011;11272;50.104;8.754;2023-04-24T00:11:58;1.23;;;0.90;;
22205;SDS011;11272;50.104;8.754;2023-04-24T00:14:24;2.87;;;1.20;;
22205;SDS011;11272;50.104;8.754;2023-04-24T00:16:50;2.70;;;1.00;;
22205;SDS011;11272;50.104;8.754;2023-04-24T00:19:15;3.93;;;1.00;;
22205;SDS011;11272;50.104;8.754;2023-04-24T00:21:41;2.70;;;1.00;;
22205;SDS011;11272;50.104;8.754;2023-04-24T00:24:07;4.43;;;1.00;;
22205;SDS011;11272;50.104;8.754;2023-04-24T00:26:34;1.60;;;1.03;;
22205;SDS011;11272;50.104;8.754;2023-04-24T00:28:59;1.30;;;0.83;;
22205;SDS011;11272;50.104;8.754;2023-04-24T00:31:26;4.40;;;1.07;;
22205;SDS011;11272;50.104;8.754;2023-04-24T00:33:51;2.50;;;0.90;;
22205;SDS011;11272;50.104;8.754;2023-04-24T00:36:17;2.73;;;0.90;;
22205;SDS011;11272;50.104;8.754;2023-04-24T00:38:45;3.77;;;0.90;;
22205;SDS011;11272;50.104;8.754;2023-04-24T00:41:11;1.30;;;1.00;;
22205;SDS011;11272;50.104;8.754;2023-04-24T00:43:37;5.73;;;1.10;;
22205;SDS011;11272;50.104;8.754;2023-04-24T00:46:03;1.10;;;0.90;;
22205;SDS011;11272;50.104;8.754;2023-04-24T00:48:28;1.33;;;0.80;;
22205;SDS011;11272;50.104;8.754;2023-04-24T00:50:55;2.20;;;0.80;;
22205;SDS011;11272;50.104;8.754;2023-04-24T00:53:22;4.87;;;1.00;;
22205;SDS011;11272;50.104;8.754;2023-04-24T00:55:48;2.37;;;1.00;;
22205;SDS011;11272;50.104;8.754;2023-04-24T00:58:13;2.17;;;0.80;;
22205;SDS011;11272;50.104;8.754;2023-04-24T01:00:40;2.23;;;1.00;;
22205;SDS011;11272;50.104;8.754;2023-04-24T01:03:06;2.03;;;0.93;;
22205;SDS011;11272;50.104;8.754;2023-04-24T01:05:33;1.60;;;0.70;;
22205;SDS011;11272;50.104;8.754;2023-04-24T01:07:59;2.47;;;0.70;;
22205;SDS011;11272;50.104;8.754;2023-04-24T01:10:26;1.73;;;0.70;;
22205;SDS011;11272;50.104;8.754;2023-04-24T01:12:54;2.10;;;1.07;;
22205;SDS011;11272;50.104;8.754;2023-04-24T01:15:20;1.00;;;0.60;;
22205;SDS011;11272;50.104;8.754;2023-04-24T01:17:46;1.73;;;0.83;;
22205;SDS011;11272;50.104;8.754;2023-04-24T01:20:13;3.73;;;0.70;;
22205;SDS011;11272;50.104;8.754;2023-04-24T01:22:40;2.50;;;0.70;;
22205;SDS011;11272;50.104;8.754;2023-04-24T01:25:06;4.00;;;0.90;;
22205;SDS011;11272;50.104;8.754;2023-04-24T01:27:32;2.83;;;0.70;;
22205;SDS011;11272;50.104;8.754;2023-04-24T01:29:57;1.50;;;1.00;;
22205;SDS011;11272;50.104;8.754;2023-04-24T01:32:23;0.60;;;0.40;;
22205;SDS011;11272;50.104;8.754;2023-04-24T01:34:50;3.53;;;1.00;;
22205;SDS011;11272;50.104;8.754;2023-04-24T01:37:16;1.20;;;0.63;;
22205;SDS011;11272;50.104;8.754;2023-04-24T01:39:42;1.80;;;0.70;;
22205;SDS011;11272;50.104;8.754;2023-04-24T01:42:08;1.43;;;0.70;;
22205;SDS011;11272;50.104;8.754;2023-04-24T01:44:34;3.53;;;1.00;;
22205;SDS011;11272;50.104;8.754;2023-04-24T01:47:02;2.10;;;0.60;;
22205;SDS011;11272;50.104;8.754;2023-04-24T01:49:29;1.27;;;0.60;;
22205;SDS011;11272;50.104;8.754;2023-04-24T01:51:54;1.97;;;0.90;;
22205;SDS011;11272;50.104;8.754;2023-04-24T01:54:20;2.20;;;0.70;;
22205;SDS011;11272;50.104;8.754;2023-04-24T01:56:45;2.37;;;0.80;;
22205;SDS011;11272;50.104;8.754;2023-04-24T01:59:11;2.60;;;0.90;;
22205;SDS011;11272;50.104;8.754;2023-04-24T02:01:37;3.13;;;0.80;;
22205;SDS011;11272;50.104;8.754;2023-04-24T02:04:05;2.70;;;0.80;;
22205;SDS011;11272;50.104;8.754;2023-04-24T02:06:33;1.30;;;0.60;;
22205;SDS011;11272;50.104;8.754;2023-04-24T02:08:59;2.00;;;0.93;;
22205;SDS011;11272;50.104;8.754;2023-04-24T02:11:26;3.43;;;0.90;;
22205;SDS011;11272;50.104;8.754;2023-04-24T02:13:52;1.20;;;0.70;;
22205;SDS011;11272;50.104;8.754;2023-04-24T02:16:17;1.07;;;0.87;;
22205;SDS011;11272;50.104;8.754;2023-04-24T02:18:43;2.23;;;1.10;;
22205;SDS011;11272;50.104;8.754;2023-04-24T02:21:09;3.80;;;0.97;;
22205;SDS011;11272;50.104;8.754;2023-04-24T02:23:35;2.33;;;0.70;;
22205;SDS011;11272;50.104;8.754;2023-04-24T02:26:01;3.07;;;0.70;;
22205;SDS011;11272;50.104;8.754;2023-04-24T02:28:27;1.10;;;0.60;;
22205;SDS011;11272;50.104;8.754;2023-04-24T02:30:53;1.53;;;0.80;;
22205;SDS011;11272;50.104;8.754;2023-04-24T02:33:21;1.43;;;0.80;;
22205;SDS011;11272;50.104;8.754;2023-04-24T02:35:53;2.50;;;0.77;;
22205;SDS011;11272;50.104;8.754;2023-04-24T02:38:19;6.87;;;0.87;;
22205;SDS011;11272;50.104;8.754;2023-04-24T02:40:45;0.73;;;0.60;;
22205;SDS011;11272;50.104;8.754;2023-04-24T02:43:10;3.23;;;1.10;;
22205;SDS011;11272;50.104;8.754;2023-04-24T02:45:36;3.47;;;0.90;;
22205;SDS011;11272;50.104;8.754;2023-04-24T02:48:03;1.03;;;0.70;;
22205;SDS011;11272;50.104;8.754;2023-04-24T02:50:29;1.43;;;0.80;;
22205;SDS011;11272;50.104;8.754;2023-04-24T02:52:54;2.87;;;0.80;;
22205;SDS011;11272;50.104;8.754;2023-04-24T02:55:20;3.83;;;0.87;;
22205;SDS011;11272;50.104;8.754;2023-04-24T02:57:45;1.03;;;0.77;;
22205;SDS011;11272;50.104;8.754;2023-04-24T03:00:11;4.60;;;1.30;;
22205;SDS011;11272;50.104;8.754;2023-04-24T03:02:39;2.80;;;0.80;;
22205;SDS011;11272;50.104;8.754;2023-04-24T03:05:04;4.80;;;0.80;;
22205;SDS011;11272;50.104;8.754;2023-04-24T03:07:30;4.33;;;1.00;;
22205;SDS011;11272;50.104;8.754;2023-04-24T03:09:58;0.57;;;0.57;;
22205;SDS011;11272;50.104;8.754;2023-04-24T03:12:25;1.30;;;0.90;;
22205;SDS011;11272;50.104;8.754;2023-04-24T03:14:51;3.50;;;0.80;;
22205;SDS011;11272;50.104;8.754;2023-04-24T03:17:18;2.97;;;1.10;;
22205;SDS011;11272;50.104;8.754;2023-04-24T03:19:43;1.43;;;0.77;;
22205;SDS011;11272;50.104;8.754;2023-04-24T03:22:10;1.20;;;1.00;;
22205;SDS011;11272;50.104;8.754;2023-04-24T03:24:37;1.83;;;1.20;;
22205;SDS011;11272;50.104;8.754;2023-04-24T03:27:03;1.07;;;0.90;;
22205;SDS011;11272;50.104;8.754;2023-04-24T03:29:46;5.50;;;1.20;;
22205;SDS011;11272;50.104;8.754;2023-04-24T03:32:12;5.07;;;1.50;;
22205;SDS011;11272;50.104;8.754;2023-04-24T03:34:38;2.70;;;1.20;;
22205;SDS011;11272;50.104;8.754;2023-04-24T03:37:05;1.70;;;1.00;;
22205;SDS011;11272;50.104;8.754;2023-04-24T03:39:33;3.13;;;1.10;;
22205;SDS011;11272;50.104;8.754;2023-04-24T03:41:58;2.83;;;1.07;;
22205;SDS011;11272;50.104;8.754;2023-04-24T03:44:35;3.23;;;1.10;;
22205;SDS011;11272;50.104;8.754;2023-04-24T03:47:02;2.50;;;0.97;;
22205;SDS011;11272;50.104;8.754;2023-04-24T03:49:29;2.67;;;1.10;;
22205;SDS011;11272;50.104;8.754;2023-04-24T03:51:56;2.97;;;0.93;;
22205;SDS011;11272;50.104;8.754;2023-04-24T03:54:25;2.80;;;1.20;;
22205;SDS011;11272;50.104;8.754;2023-04-24T03:56:52;4.53;;;1.67;;
22205;SDS011;11272;50.104;8.754;2023-04-24T03:59:19;1.87;;;1.30;;
22205;SDS011;11272;50.104;8.754;2023-04-24T04:01:49;3.13;;;0.97;;
22205;SDS011;11272;50.104;8.754;2023-04-24T04:04:16;5.90;;;1.10;;
22205;SDS011;11272;50.104;8.754;2023-04-24T04:06:43;2.70;;;1.20;;
22205;SDS011;11272;50.104;8.754;2023-04-24T04:09:09;3.07;;;1.10;;
22205;SDS011;11272;50.104;8.754;2023-04-24T04:11:35;6.20;;;1.30;;
22205;SDS011;11272;50.104;8.754;2023-04-24T04:14:02;1.83;;;1.10;;
22205;SDS011;11272;50.104;8.754;2023-04-24T04:16:28;3.07;;;1.30;;
22205;SDS011;11272;50.104;8.754;2023-04-24T04:19:00;3.80;;;1.27;;
22205;SDS011;11272;50.104;8.754;2023-04-24T04:21:28;4.90;;;1.30;;
22205;SDS011;11272;50.104;8.754;2023-04-24T04:24:04;3.43;;;1.30;;
22205;SDS011;11272;50.104;8.754;2023-04-24T04:26:35;1.63;;;1.30;;
22205;SDS011;11272;50.104;8.754;2023-04-24T04:29:07;2.07;;;1.33;;
22205;SDS011;11272;50.104;8.754;2023-04-24T04:31:37;3.07;;;1.40;;
22205;SDS011;11272;50.104;8.754;2023-04-24T04:34:07;5.27;;;1.40;;
22205;SDS011;11272;50.104;8.754;2023-04-24T04:36:34;4.60;;;1.30;;
22205;SDS011;11272;50.104;8.754;2023-04-24T04:39:09;3.60;;;1.13;;
22205;SDS011;11272;50.104;8.754;2023-04-24T04:41:52;2.07;;;1.20;;
22205;SDS011;11272;50.104;8.754;2023-04-24T04:44:20;3.60;;;1.37;;
22205;SDS011;11272;50.104;8.754;2023-04-24T04:46:46;2.43;;;1.30;;
22205;SDS011;11272;50.104;8.754;2023-04-24T04:49:20;1.97;;;1.37;;
22205;SDS011;11272;50.104;8.754;2023-04-24T04:51:47;2.37;;;1.43;;
22205;SDS011;11272;50.104;8.754;2023-04-24T04:54:14;3.67;;;1.30;;
22205;SDS011;11272;50.104;8.754;2023-04-24T04:56:41;3.03;;;1.50;;
22205;SDS011;11272;50.104;8.754;2023-04-24T04:59:08;3.53;;;1.27;;
22205;SDS011;11272;50.104;8.754;2023-04-24T05:01:36;1.67;;;1.20;;
22205;SDS011;11272;50.104;8.754;2023-04-24T05:04:02;4.07;;;1.10;;
22205;SDS011;11272;50.104;8.754;2023-04-24T05:06:27;2.77;;;1.30;;
22205;SDS011;11272;50.104;8.754;2023-04-24T05:08:54;1.73;;;1.20;;
22205;SDS011;11272;50.104;8.754;2023-04-24T05:11:31;1.23;;;1.13;;
22205;SDS011;11272;50.104;8.754;2023-04-24T05:14:00;3.53;;;1.83;;
22205;SDS011;11272;50.104;8.754;2023-04-24T05:16:34;2.20;;;1.40;;
22205;SDS011;11272;50.104;8.754;2023-04-24T05:19:02;1.60;;;1.30;;
22205;SDS011;11272;50.104;8.754;2023-04-24T05:21:33;1.73;;;1.20;;
22205;SDS011;11272;50.104;8.754;2023-04-24T05:23:59;1.30;;;1.20;;
22205;SDS011;11272;50.104;8.754;2023-04-24T05:26:45;1.10;;;1.00;;
22205;SDS011;11272;50.104;8.754;2023-04-24T05:29:13;3.33;;;1.77;;
22205;SDS011;11272;50.104;8.754;2023-04-24T05:31:38;2.67;;;1.20;;
22205;SDS011;11272;50.104;8.754;2023-04-24T05:34:04;3.27;;;2.20;;
22205;SDS011;11272;50.104;8.754;2023-04-24T05:36:31;4.40;;;1.90;;
22205;SDS011;11272;50.104;8.754;2023-04-24T05:38:57;2.37;;;1.50;;
22205;SDS011;11272;50.104;8.754;2023-04-24T05:41:23;1.90;;;1.70;;
22205;SDS011;11272;50.104;8.754;2023-04-24T05:43:48;3.17;;;1.57;;
22205;SDS011;11272;50.104;8.754;2023-04-24T05:46:14;4.10;;;1.67;;
22205;SDS011;11272;50.104;8.754;2023-04-24T05:48:40;2.60;;;1.60;;
22205;SDS011;11272;50.104;8.754;2023-04-24T05:51:05;2.40;;;1.77;;
22205;SDS011;11272;50.104;8.754;2023-04-24T05:53:31;3.17;;;1.53;;
22205;SDS011;11272;50.104;8.754;2023-04-24T05:55:57;3.77;;;1.60;;
22205;SDS011;11272;50.104;8.754;2023-04-24T05:58:23;2.33;;;1.70;;
22205;SDS011;11272;50.104;8.754;2023-04-24T06:00:50;3.90;;;1.67;;
22205;SDS011;11272;50.104;8.754;2023-04-24T06:03:16;6.30;;;1.90;;
22205;SDS011;11272;50.104;8.754;2023-04-24T06:05:43;3.50;;;1.70;;
22205;SDS011;11272;50.104;8.754;2023-04-24T06:08:13;3.03;;;2.00;;
22205;SDS011;11272;50.104;8.754;2023-04-24T06:10:41;2.07;;;1.40;;
22205;SDS011;11272;50.104;8.754;2023-04-24T06:13:09;1.97;;;1.50;;
22205;SDS011;11272;50.104;8.754;2023-04-24T06:15:37;1.97;;;1.20;;
22205;SDS011;11272;50.104;8.754;2023-04-24T06:18:06;1.30;;;1.20;;
22205;SDS011;11272;50.104;8.754;2023-04-24T06:20:32;1.60;;;1.23;;
22205;SDS011;11272;50.104;8.754;2023-04-24T06:22:58;1.60;;;1.50;;
22205;SDS011;11272;50.104;8.754;2023-04-24T06:25:25;3.23;;;1.53;;
22205;SDS011;11272;50.104;8.754;2023-04-24T06:27:52;2.50;;;1.40;;
22205;SDS011;11272;50.104;8.754;2023-04-24T06:30:17;2.37;;;1.60;;
22205;SDS011;11272;50.104;8.754;2023-04-24T06:32:44;1.70;;;1.60;;
22205;SDS011;11272;50.104;8.754;2023-04-24T06:35:10;3.27;;;2.10;;
22205;SDS011;11272;50.104;8.754;2023-04-24T06:37:38;2.60;;;1.90;;
22205;SDS011;11272;50.104;8.754;2023-04-24T06:40:05;1.67;;;1.57;;
22205;SDS011;11272;50.104;8.754;2023-04-24T06:42:31;2.47;;;1.80;;
22205;SDS011;11272;50.104;8.754;2023-04-24T06:44:56;2.00;;;1.60;;
22205;SDS011;11272;50.104;8.754;2023-04-24T06:47:22;3.87;;;1.70;;
22205;SDS011;11272;50.104;8.754;2023-04-24T06:49:51;3.20;;;1.77;;
22205;SDS011;11272;50.104;8.754;2023-04-24T06:52:18;2.73;;;1.90;;
22205;SDS011;11272;50.104;8.754;2023-04-24T06:54:44;2.20;;;1.70;;
22205;SDS011;11272;50.104;8.754;2023-04-24T06:57:09;3.17;;;1.67;;
22205;SDS011;11272;50.104;8.754;2023-04-24T06:59:35;1.63;;;1.53;;
22205;SDS011;11272;50.104;8.754;2023-04-24T07:02:01;3.57;;;1.90;;
22205;SDS011;11272;50.104;8.754;2023-04-24T07:04:28;3.20;;;1.80;;
22205;SDS011;11272;50.104;8.754;2023-04-24T07:06:55;3.10;;;2.00;;
22205;SDS011;11272;50.104;8.754;2023-04-24T07:09:23;2.67;;;1.83;;
22205;SDS011;11272;50.104;8.754;2023-04-24T07:11:51;2.83;;;1.50;;
22205;SDS011;11272;50.104;8.754;2023-04-24T07:14:21;2.03;;;1.60;;
22205;SDS011;11272;50.104;8.754;2023-04-24T07:16:46;3.90;;;1.63;;
22205;SDS011;11272;50.104;8.754;2023-04-24T07:19:12;1.90;;;1.67;;
22205;SDS011;11272;50.104;8.754;2023-04-24T07:21:39;2.10;;;1.90;;
22205;SDS011;11272;50.104;8.754;2023-04-24T07:24:05;3.50;;;1.70;;
22205;SDS011;11272;50.104;8.754;2023-04-24T07:26:34;2.10;;;1.70;;
22205;SDS011;11272;50.104;8.754;2023-04-24T07:29:00;3.87;;;1.90;;
22205;SDS011;11272;50.104;8.754;2023-04-24T07:31:26;2.07;;;1.67;;
22205;SDS011;11272;50.104;8.754;2023-04-24T07:33:51;1.83;;;1.63;;
22205;SDS011;11272;50.104;8.754;2023-04-24T07:36:17;1.63;;;1.47;;
22205;SDS011;11272;50.104;8.754;2023-04-24T07:38:44;1.57;;;1.43;;
22205;SDS011;11272;50.104;8.754;2023-04-24T07:41:13;2.33;;;1.50;;
22205;SDS011;11272;50.104;8.754;2023-04-24T07:43:40;3.93;;;1.77;;
22205;SDS011;11272;50.104;8.754;2023-04-24T07:46:06;2.47;;;1.53;;
22205;SDS011;11272;50.104;8.754;2023-04-24T07:48:32;2.10;;;1.43;;
22205;SDS011;11272;50.104;8.754;2023-04-24T07:50:58;3.17;;;1.40;;
22205;SDS011;11272;50.104;8.754;2023-04-24T07:53:24;3.53;;;1.43;;
22205;SDS011;11272;50.104;8.754;2023-04-24T07:55:49;1.70;;;1.40;;
22205;SDS011;11272;50.104;8.754;2023-04-24T07:58:15;2.93;;;1.53;;
22205;SDS011;11272;50.104;8.754;2023-04-24T08:00:40;4.83;;;1.40;;
22205;SDS011;11272;50.104;8.754;2023-04-24T08:03:06;2.67;;;1.67;;
22205;SDS011;11272;50.104;8.754;2023-04-24T08:05:31;2.07;;;1.60;;
22205;SDS011;11272;50.104;8.754;2023-04-24T08:07:58;2.20;;;1.60;;
22205;SDS011;11272;50.104;8.754;2023-04-24T08:10:24;1.77;;;1.50;;
22205;SDS011;11272;50.104;8.754;2023-04-24T08:12:50;5.93;;;1.80;;
22205;SDS011;11272;50.104;8.754;2023-04-24T08:15:18;5.00;;;2.00;;
22205;SDS011;11272;50.104;8.754;2023-04-24T08:17:44;2.33;;;1.83;;
22205;SDS011;11272;50.104;8.754;2023-04-24T08:20:10;7.30;;;1.73;;
22205;SDS011;11272;50.104;8.754;2023-04-24T08:22:39;6.17;;;2.30;;
22205;SDS011;11272;50.104;8.754;2023-04-24T08:25:06;3.27;;;1.90;;
22205;SDS011;11272;50.104;8.754;2023-04-24T08:27:32;3.40;;;2.67;;
22205;SDS011;11272;50.104;8.754;2023-04-24T08:29:58;3.40;;;2.40;;
22205;SDS011;11272;50.104;8.754;2023-04-24T08:32:26;2.33;;;2.13;;
22205;SDS011;11272;50.104;8.754;2023-04-24T08:34:55;6.83;;;1.63;;
22205;SDS011;11272;50.104;8.754;2023-04-24T08:37:22;4.33;;;2.10;;
22205;SDS011;11272;50.104;8.754;2023-04-24T08:39:48;2.17;;;1.60;;
22205;SDS011;11272;50.104;8.754;2023-04-24T08:42:14;2.73;;;1.80;;
22205;SDS011;11272;50.104;8.754;2023-04-24T08:44:41;1.93;;;1.40;;
22205;SDS011;11272;50.104;8.754;2023-04-24T08:47:07;2.90;;;1.67;;
22205;SDS011;11272;50.104;8.754;2023-04-24T08:49:33;3.80;;;1.97;;
22205;SDS011;11272;50.104;8.754;2023-04-24T08:52:01;3.40;;;2.03;;
22205;SDS011;11272;50.104;8.754;2023-04-24T08:54:28;2.27;;;1.80;;
22205;SDS011;11272;50.104;8.754;2023-04-24T08:56:54;2.30;;;1.67;;
22205;SDS011;11272;50.104;8.754;2023-04-24T08:59:24;1.97;;;1.73;;
22205;SDS011;11272;50.104;8.754;2023-04-24T09:01:49;4.57;;;1.60;;
22205;SDS011;11272;50.104;8.754;2023-04-24T09:04:17;2.97;;;1.70;;
22205;SDS011;11272;50.104;8.754;2023-04-24T09:06:45;3.03;;;1.80;;
22205;SDS011;11272;50.104;8.754;2023-04-24T09:09:11;2.40;;;1.43;;
22205;SDS011;11272;50.104;8.754;2023-04-24T09:11:37;1.80;;;1.53;;
22205;SDS011;11272;50.104;8.754;2023-04-24T09:14:02;2.13;;;1.43;;
22205;SDS011;11272;50.104;8.754;2023-04-24T09:16:29;1.50;;;1.40;;
22205;SDS011;11272;50.104;8.754;2023-04-24T09:18:54;1.47;;;1.37;;
22205;SDS011;11272;50.104;8.754;2023-04-24T09:21:21;2.53;;;1.50;;
22205;SDS011;11272;50.104;8.754;2023-04-24T09:23:57;2.67;;;1.70;;
22205;SDS011;11272;50.104;8.754;2023-04-24T09:26:22;1.70;;;1.53;;
22205;SDS011;11272;50.104;8.754;2023-04-24T09:28:48;2.77;;;1.80;;
22205;SDS011;11272;50.104;8.754;2023-04-24T09:31:15;2.63;;;2.00;;
22205;SDS011;11272;50.104;8.754;2023-04-24T09:34:02;2.00;;;1.73;;
22205;SDS011;11272;50.104;8.754;2023-04-24T09:36:33;1.60;;;1.47;;
22205;SDS011;11272;50.104;8.754;2023-04-24T09:39:13;1.70;;;1.50;;
22205;SDS011;11272;50.104;8.754;2023-04-24T09:41:51;1.93;;;1.60;;
22205;SDS011;11272;50.104;8.754;2023-04-24T09:44:19;2.47;;;1.67;;
22205;SDS011;11272;50.104;8.754;2023-04-24T09:46:52;2.20;;;1.70;;
22205;SDS011;11272;50.104;8.754;2023-04-24T09:49:22;3.27;;;1.60;;
22205;SDS011;11272;50.104;8.754;2023-04-24T09:51:49;3.67;;;1.40;;
22205;SDS011;11272;50.104;8.754;2023-04-24T09:54:16;1.73;;;1.50;;
22205;SDS011;11272;50.104;8.754;2023-04-24T09:56:49;3.23;;;1.60;;
22205;SDS011;11272;50.104;8.754;2023-04-24T09:59:16;1.70;;;1.60;;
22205;SDS011;11272;50.104;8.754;2023-04-24T10:01:45;4.37;;;1.53;;
22205;SDS011;11272;50.104;8.754;2023-04-24T10:04:20;3.63;;;1.80;;
22205;SDS011;11272;50.104;8.754;2023-04-24T10:06:49;1.90;;;1.47;;
22205;SDS011;11272;50.104;8.754;2023-04-24T10:09:17;2.20;;;1.30;;
22205;SDS011;11272;50.104;8.754;2023-04-24T10:11:44;2.43;;;1.80;;
22205;SDS011;11272;50.104;8.754;2023-04-24T10:14:12;2.50;;;1.70;;
22205;SDS011;11272;50.104;8.754;2023-04-24T10:16:39;2.50;;;1.67;;
22205;SDS011;11272;50.104;8.754;2023-04-24T10:19:06;4.30;;;1.63;;
22205;SDS011;11272;50.104;8.754;2023-04-24T10:21:32;1.10;;;0.73;;
22205;SDS011;11272;50.104;8.754;2023-04-24T10:23:59;1.87;;;1.50;;
22205;SDS011;11272;50.104;8.754;2023-04-24T10:26:25;1.77;;;1.20;;
22205;SDS011;11272;50.104;8.754;2023-04-24T10:28:52;1.47;;;1.23;;
22205;SDS011;11272;50.104;8.754;2023-04-24T10:31:19;1.77;;;1.27;;
22205;SDS011;11272;50.104;8.754;2023-04-24T10:33:49;2.23;;;1.30;;
22205;SDS011;11272;50.104;8.754;2023-04-24T10:36:16;2.30;;;1.20;;
22205;SDS011;11272;50.104;8.754;2023-04-24T10:38:47;2.03;;;1.33;;
22205;SDS011;11272;50.104;8.754;2023-04-24T10:41:16;1.80;;;1.17;;
22205;SDS011;11272;50.104;8.754;2023-04-24T10:43:48;2.03;;;1.50;;
22205;SDS011;11272;50.104;8.754;2023-04-24T10:46:30;3.20;;;1.70;;
22205;SDS011;11272;50.104;8.754;2023-04-24T10:48:55;3.57;;;1.43;;
22205;SDS011;11272;50.104;8.754;2023-04-24T10:51:23;2.57;;;1.50;;
22205;SDS011;11272;50.104;8.754;2023-04-24T10:54:27;1.13;;;0.90;;
22205;SDS011;11272;50.104;8.754;2023-04-24T10:56:55;2.77;;;1.60;;
22205;SDS011;11272;50.104;8.754;2023-04-24T10:59:46;1.63;;;1.53;;
22205;SDS011;11272;50.104;8.754;2023-04-24T11:02:16;5.60;;;1.93;;
22205;SDS011;11272;50.104;8.754;2023-04-24T11:04:43;3.03;;;1.60;;
22205;SDS011;11272;50.104;8.754;2023-04-24T11:07:09;4.43;;;1.50;;
22205;SDS011;11272;50.104;8.754;2023-04-24T11:09:36;2.07;;;1.70;;
22205;SDS011;11272;50.104;8.754;2023-04-24T11:12:04;1.83;;;1.57;;
22205;SDS011;11272;50.104;8.754;2023-04-24T11:17:30;2.13;;;1.33;;
22205;SDS011;11272;50.104;8.754;2023-04-24T11:20:06;1.33;;;1.10;;
22205;SDS011;11272;50.104;8.754;2023-04-24T11:22:35;1.17;;;1.07;;
22205;SDS011;11272;50.104;8.754;2023-04-24T11:25:03;2.50;;;1.30;;
22205;SDS011;11272;50.104;8.754;2023-04-24T11:27:31;1.30;;;1.20;;
22205;SDS011;11272;50.104;8.754;2023-04-24T11:30:03;1.70;;;1.30;;
22205;SDS011;11272;50.104;8.754;2023-04-24T11:35:16;2.33;;;1.37;;
22205;SDS011;11272;50.104;8.754;2023-04-24T11:37:43;2.30;;;1.40;;
22205;SDS011;11272;50.104;8.754;2023-04-24T11:40:16;4.00;;;1.30;;
22205;SDS011;11272;50.104;8.754;2023-04-24T11:42:52;1.53;;;1.10;;
22205;SDS011;11272;50.104;8.754;2023-04-24T11:45:25;1.47;;;1.00;;
22205;SDS011;11272;50.104;8.754;2023-04-24T11:47:54;1.67;;;1.13;;
22205;SDS011;11272;50.104;8.754;2023-04-24T11:50:24;1.70;;;1.20;;
22205;SDS011;11272;50.104;8.754;2023-04-24T11:52:55;2.67;;;0.97;;
22205;SDS011;11272;50.104;8.754;2023-04-24T11:57:47;4.10;;;1.03;;
22205;SDS011;11272;50.104;8.754;2023-04-24T12:00:18;2.77;;;1.17;;
22205;SDS011;11272;50.104;8.754;2023-04-24T12:02:48;1.10;;;0.90;;
22205;SDS011;11272;50.104;8.754;2023-04-24T12:05:22;1.67;;;1.23;;
22205;SDS011;11272;50.104;8.754;2023-04-24T12:07:51;1.50;;;0.90;;
22205;SDS011;11272;50.104;8.754;2023-04-24T12:10:21;3.23;;;1.00;;
22205;SDS011;11272;50.104;8.754;2023-04-24T12:12:48;2.37;;;0.97;;
22205;SDS011;11272;50.104;8.754;2023-04-24T12:15:17;2.17;;;0.80;;
22205;SDS011;11272;50.104;8.754;2023-04-24T12:17:43;1.00;;;0.80;;
22205;SDS011;11272;50.104;8.754;2023-04-24T12:20:09;1.27;;;0.70;;
22205;SDS011;11272;50.104;8.754;2023-04-24T12:25:26;2.13;;;0.80;;
22205;SDS011;11272;50.104;8.754;2023-04-24T12:27:54;1.50;;;0.80;;
22205;SDS011;11272;50.104;8.754;2023-04-24T12:30:29;0.70;;;0.60;;
22205;SDS011;11272;50.104;8.754;2023-04-24T12:32:59;2.37;;;0.90;;
22205;SDS011;11272;50.104;8.754;2023-04-24T12:35:30;0.70;;;0.70;;
22205;SDS011;11272;50.104;8.754;2023-04-24T12:38:14;1.30;;;1.20;;
22205;SDS011;11272;50.104;8.754;2023-04-24T12:40:41;0.90;;;0.70;;
22205;SDS011;11272;50.104;8.754;2023-04-24T12:43:17;1.00;;;0.90;;
22205;SDS011;11272;50.104;8.754;2023-04-24T12:45:45;1.07;;;0.80;;
22205;SDS011;11272;50.104;8.754;2023-04-24T12:48:11;1.00;;;0.90;;
22205;SDS011;11272;50.104;8.754;2023-04-24T12:50:39;1.20;;;1.00;;
22205;SDS011;11272;50.104;8.754;2023-04-24T12:53:05;1.80;;;1.10;;
22205;SDS011;11272;50.104;8.754;2023-04-24T12:55:31;1.30;;;1.13;;
22205;SDS011;11272;50.104;8.754;2023-04-24T12:57:57;1.03;;;0.93;;
22205;SDS011;11272;50.104;8.754;2023-04-24T13:00:23;2.40;;;1.10;;
22205;SDS011;11272;50.104;8.754;2023-04-24T13:02:49;5.37;;;1.57;;
22205;SDS011;11272;50.104;8.754;2023-04-24T13:05:15;3.87;;;1.83;;
22205;SDS011;11272;50.104;8.754;2023-04-24T13:07:41;2.47;;;1.70;;
22205;SDS011;11272;50.104;8.754;2023-04-24T13:13:04;3.17;;;1.70;;
22205;SDS011;11272;50.104;8.754;2023-04-24T13:15:30;5.27;;;1.77;;
22205;SDS011;11272;50.104;8.754;2023-04-24T13:17:56;4.53;;;2.00;;
22205;SDS011;11272;50.104;8.754;2023-04-24T13:20:21;3.63;;;2.10;;
22205;SDS011;11272;50.104;8.754;2023-04-24T13:22:48;3.90;;;1.90;;
22205;SDS011;11272;50.104;8.754;2023-04-24T13:25:13;4.37;;;2.10;;
22205;SDS011;11272;50.104;8.754;2023-04-24T13:27:42;2.67;;;2.00;;
22205;SDS011;11272;50.104;8.754;2023-04-24T13:30:08;5.07;;;2.23;;
22205;SDS011;11272;50.104;8.754;2023-04-24T13:32:38;3.60;;;2.00;;
22205;SDS011;11272;50.104;8.754;2023-04-24T13:35:04;4.37;;;2.10;;
22205;SDS011;11272;50.104;8.754;2023-04-24T13:37:31;4.03;;;2.03;;
22205;SDS011;11272;50.104;8.754;2023-04-24T13:39:57;3.73;;;2.07;;
22205;SDS011;11272;50.104;8.754;2023-04-24T13:42:22;2.23;;;1.90;;
22205;SDS011;11272;50.104;8.754;2023-04-24T13:44:50;1.93;;;1.70;;
22205;SDS011;11272;50.104;8.754;2023-04-24T13:47:16;4.10;;;1.80;;
22205;SDS011;11272;50.104;8.754;2023-04-24T13:49:41;5.83;;;1.63;;
22205;SDS011;11272;50.104;8.754;2023-04-24T13:52:07;3.03;;;1.87;;
22205;SDS011;11272;50.104;8.754;2023-04-24T13:54:33;5.23;;;1.90;;
22205;SDS011;11272;50.104;8.754;2023-04-24T13:56:58;5.60;;;2.07;;
22205;SDS011;11272;50.104;8.754;2023-04-24T13:59:24;3.77;;;2.03;;
22205;SDS011;11272;50.104;8.754;2023-04-24T14:01:50;3.50;;;2.00;;
22205;SDS011;11272;50.104;8.754;2023-04-24T14:04:15;3.50;;;2.00;;
22205;SDS011;11272;50.104;8.754;2023-04-24T14:06:41;2.10;;;1.90;;
22205;SDS011;11272;50.104;8.754;2023-04-24T14:09:06;2.80;;;1.80;;
22205;SDS011;11272;50.104;8.754;2023-04-24T14:11:33;1.90;;;1.80;;
22205;SDS011;11272;50.104;8.754;2023-04-24T14:14:00;6.50;;;2.03;;
22205;SDS011;11272;50.104;8.754;2023-04-24T14:16:26;3.03;;;2.03;;
22205;SDS011;11272;50.104;8.754;2023-04-24T14:18:53;3.90;;;2.27;;
22205;SDS011;11272;50.104;8.754;2023-04-24T14:21:18;5.90;;;2.30;;
22205;SDS011;11272;50.104;8.754;2023-04-24T14:23:45;2.40;;;2.20;;
22205;SDS011;11272;50.104;8.754;2023-04-24T14:26:10;5.13;;;2.67;;
22205;SDS011;11272;50.104;8.754;2023-04-24T14:28:36;2.77;;;2.17;;
22205;SDS011;11272;50.104;8.754;2023-04-24T14:31:02;2.90;;;2.00;;
22205;SDS011;11272;50.104;8.754;2023-04-24T14:33:27;3.60;;;2.00;;
22205;SDS011;11272;50.104;8.754;2023-04-24T14:35:53;3.77;;;2.30;;
22205;SDS011;11272;50.104;8.754;2023-04-24T14:38:18;2.30;;;1.90;;
22205;SDS011;11272;50.104;8.754;2023-04-24T14:40:44;2.37;;;1.93;;
22205;SDS011;11272;50.104;8.754;2023-04-24T14:43:10;3.50;;;2.20;;
22205;SDS011;11272;50.104;8.754;2023-04-24T14:45:36;4.17;;;2.53;;
22205;SDS011;11272;50.104;8.754;2023-04-24T14:48:02;3.73;;;2.13;;
22205;SDS011;11272;50.104;8.754;2023-04-24T14:50:28;5.07;;;2.30;;
22205;SDS011;11272;50.104;8.754;2023-04-24T14:52:54;2.60;;;2.00;;
22205;SDS011;11272;50.104;8.754;2023-04-24T14:55:22;2.57;;;2.23;;
22205;SDS011;11272;50.104;8.754;2023-04-24T14:57:48;3.60;;;2.60;;
22205;SDS011;11272;50.104;8.754;2023-04-24T15:00:14;7.10;;;2.93;;
22205;SDS011;11272;50.104;8.754;2023-04-24T15:02:42;5.10;;;2.73;;
22205;SDS011;11272;50.104;8.754;2023-04-24T15:05:09;5.67;;;2.60;;